createdAt,value
2022-08-10T00:01:31.432Z,70.69
2022-08-10T00:03:58.711Z,71.46
2022-08-10T00:06:25.803Z,71.51
2022-08-10T00:08:55.268Z,71.35
2022-08-10T00:11:25.965Z,71.10
2022-08-10T00:13:53.215Z,70.65
2022-08-10T00:16:20.336Z,71.50
2022-08-10T00:18:47.494Z,71.89
2022-08-10T00:21:14.736Z,72.96
2022-08-10T00:23:42.715Z,73.54
2022-08-10T00:26:10.484Z,73.86
2022-08-10T00:28:39.152Z,74.55
2022-08-10T00:31:06.646Z,74.30
2022-08-10T00:33:33.785Z,74.43
2022-08-10T00:36:01.005Z,74.99
2022-08-10T00:38:28.205Z,75.42
2022-08-10T00:40:55.347Z,74.49
2022-08-10T00:43:23.530Z,75.42
2022-08-10T00:45:59.480Z,74.74
2022-08-10T00:48:31.642Z,74.39
2022-08-10T00:50:59.933Z,74.47
2022-08-10T00:53:30.240Z,74.27
2022-08-10T00:56:38.373Z,73.55
2022-08-10T00:58:45.426Z,73.63
2022-08-10T01:02:07.365Z,73.72
2022-08-10T01:04:42.035Z,73.33
2022-08-10T01:06:58.953Z,72.87
2022-08-10T01:09:55.695Z,72.25
2022-08-10T01:12:38.386Z,72.11
2022-08-10T01:15:13.839Z,71.71
2022-08-10T01:18:14.478Z,71.61
2022-08-10T01:21:17.296Z,72.99
2022-08-10T01:23:53.486Z,73.00
2022-08-10T01:26:31.186Z,73.24
2022-08-10T01:29:36.451Z,73.13
2022-08-10T01:32:07.292Z,73.69
2022-08-10T01:34:52.155Z,73.47
2022-08-10T01:37:24.855Z,72.94
2022-08-10T01:39:56.732Z,72.38
2022-08-10T01:42:25.277Z,71.67
2022-08-10T01:44:56.512Z,71.39
2022-08-10T01:47:52.318Z,70.32
2022-08-10T01:50:58.989Z,69.83
2022-08-10T01:53:41.247Z,69.75
2022-08-10T01:56:14.327Z,69.24
2022-08-10T01:58:44.559Z,68.91
2022-08-10T02:01:16.583Z,69.17
2022-08-10T02:04:04.684Z,69.23
2022-08-10T02:06:41.502Z,70.29
2022-08-10T02:09:11.452Z,70.83
2022-08-10T02:12:06.167Z,72.12
2022-08-10T02:14:34.878Z,72.01
2022-08-10T02:17:05.574Z,72.32
2022-08-10T02:19:35.657Z,72.64
2022-08-10T02:22:37.137Z,72.74
2022-08-10T02:24:52.740Z,72.87
2022-08-10T02:27:23.946Z,72.61
2022-08-10T02:29:53.271Z,72.18
2022-08-10T02:32:38.343Z,71.83
2022-08-10T02:35:21.809Z,71.77
2022-08-10T02:37:51.728Z,72.09
2022-08-10T02:45:02.894Z,72.35
2022-08-10T02:45:24.707Z,71.44
2022-08-10T02:46:29.845Z,72.40
2022-08-10T02:49:03.807Z,72.28
2022-08-10T02:52:07.971Z,72.83
2022-08-10T02:54:35.804Z,73.00
2022-08-10T02:57:10.477Z,72.37
2022-08-10T02:59:43.024Z,72.04
2022-08-10T03:02:14.727Z,72.03
2022-08-10T03:04:55.250Z,71.61
2022-08-10T03:07:43.907Z,71.42
2022-08-10T03:10:26.813Z,71.50
2022-08-10T03:12:59.594Z,71.36
2022-08-10T03:15:29.800Z,72.21
2022-08-10T03:17:59.097Z,72.02
2022-08-10T03:20:47.700Z,71.20
2022-08-10T03:23:18.902Z,71.09
2022-08-10T03:25:54.220Z,72.21
2022-08-10T03:28:33.477Z,71.05
2022-08-10T03:31:02.021Z,71.07
2022-08-10T03:33:33.992Z,70.46
2022-08-10T03:36:42.579Z,69.80
2022-08-10T03:38:53.564Z,70.60
2022-08-10T03:41:47.742Z,70.24
2022-08-10T03:44:22.145Z,70.22
2022-08-10T03:46:51.121Z,70.01
2022-08-10T03:49:20.127Z,70.05
2022-08-10T03:51:49.571Z,70.06
2022-08-10T03:54:18.441Z,69.36
2022-08-10T03:56:46.367Z,69.29
2022-08-10T03:59:15.915Z,69.44
2022-08-10T04:02:43.940Z,69.71
2022-08-10T04:04:34.163Z,69.14
2022-08-10T04:07:03.187Z,68.76
2022-08-10T04:09:53.476Z,68.33
2022-08-10T04:12:20.714Z,69.19
2022-08-10T04:14:51.159Z,68.87
2022-08-10T04:17:59.475Z,69.46
2022-08-10T04:20:17.618Z,68.42
2022-08-10T04:22:48.931Z,70.11
2022-08-10T04:25:16.800Z,69.37
2022-08-10T04:27:44.907Z,68.77
2022-08-10T04:30:12.763Z,67.83
2022-08-10T04:32:41.809Z,68.15
2022-08-10T04:35:10.925Z,67.14
2022-08-10T04:37:47.176Z,65.90
2022-08-10T04:40:28.547Z,64.28
2022-08-10T04:43:05.819Z,63.72
2022-08-10T04:45:49.124Z,63.28
2022-08-10T04:48:40.336Z,63.69
2022-08-10T04:51:07.998Z,63.84
2022-08-10T04:54:04.412Z,64.28
2022-08-10T04:56:32.090Z,63.84
2022-08-10T04:59:00.763Z,63.40
2022-08-10T05:02:21.778Z,63.08
2022-08-10T05:04:34.047Z,62.95
2022-08-10T05:07:03.724Z,62.66
2022-08-10T05:09:30.814Z,62.49
2022-08-10T05:11:58.234Z,62.47
2022-08-10T05:14:25.586Z,62.49
2022-08-10T05:16:52.658Z,62.07
2022-08-10T05:20:02.314Z,63.01
2022-08-10T05:22:07.425Z,63.18
2022-08-10T05:24:34.580Z,63.01
2022-08-10T05:27:10.443Z,63.01
2022-08-10T05:29:38.020Z,62.44
2022-08-10T05:32:05.324Z,62.52
2022-08-10T05:34:32.415Z,62.38
2022-08-10T05:37:00.459Z,61.74
2022-08-10T05:39:31.939Z,60.76
2022-08-10T05:42:01.844Z,60.29
2022-08-10T05:44:30.318Z,60.46
2022-08-10T05:46:57.580Z,60.29
2022-08-10T05:49:25.193Z,60.38
2022-08-10T05:51:53.071Z,59.79
2022-08-10T05:54:20.526Z,59.85
2022-08-10T05:56:55.169Z,59.79
2022-08-10T06:00:30.915Z,59.58
2022-08-10T06:02:31.215Z,58.63
2022-08-10T06:05:12.182Z,58.53
2022-08-10T06:07:42.935Z,57.26
2022-08-10T06:10:14.063Z,55.63
2022-08-10T06:13:30.736Z,53.70
2022-08-10T06:16:07.572Z,51.69
2022-08-10T06:18:36.058Z,50.78
2022-08-10T06:21:04.605Z,50.36
2022-08-10T06:23:33.094Z,48.66
2022-08-10T06:26:11.332Z,47.78
2022-08-10T06:29:02.047Z,46.21
2022-08-10T06:31:48.869Z,45.14
2022-08-10T06:34:28.860Z,45.02
2022-08-10T06:36:59.178Z,44.81
2022-08-10T06:39:36.451Z,44.75
2022-08-10T06:42:22.711Z,43.42
2022-08-10T06:45:00.770Z,43.37
2022-08-10T06:47:43.700Z,43.54
2022-08-10T06:50:45.292Z,43.58
2022-08-10T06:53:21.658Z,42.17
2022-08-10T06:56:13.497Z,41.56
2022-08-10T06:58:46.139Z,41.07
2022-08-10T07:01:16.089Z,39.62
2022-08-10T07:03:47.326Z,39.07
2022-08-10T07:06:18.022Z,39.27
2022-08-10T07:08:46.149Z,39.16
2022-08-10T07:11:14.623Z,40.30
2022-08-10T07:14:15.902Z,40.29
2022-08-10T07:16:33.672Z,40.40
2022-08-10T07:19:02.131Z,39.47
2022-08-10T07:21:32.706Z,39.59
2022-08-10T07:24:02.712Z,39.78
2022-08-10T07:26:31.282Z,39.42
2022-08-10T07:28:59.682Z,39.32
2022-08-10T07:31:36.035Z,37.68
2022-08-10T07:34:22.627Z,37.08
2022-08-10T07:37:03.829Z,37.34
2022-08-10T07:39:58.030Z,35.08
2022-08-10T07:42:23.369Z,33.98
2022-08-10T07:45:08.896Z,32.70
2022-08-10T07:47:53.929Z,33.03
2022-08-10T07:50:25.152Z,31.89
2022-08-10T07:52:55.420Z,30.57
2022-08-10T07:56:01.579Z,29.26
2022-08-10T07:58:11.595Z,30.64
2022-08-10T08:00:40.991Z,31.60
2022-08-10T08:03:09.482Z,33.26
2022-08-10T08:05:58.807Z,34.91
2022-08-10T08:08:25.117Z,35.95
2022-08-10T08:10:56.378Z,36.12
2022-08-10T08:13:23.985Z,37.07
2022-08-10T08:16:20.612Z,37.22
2022-08-10T08:18:54.124Z,37.57
2022-08-10T08:24:04.545Z,38.24
2022-08-10T08:24:31.548Z,38.44
2022-08-10T08:27:02.376Z,37.99
2022-08-10T08:29:31.629Z,37.80
2022-08-10T08:32:01.792Z,37.15
2022-08-10T08:34:36.498Z,36.26
2022-08-10T08:37:05.793Z,35.78
2022-08-10T08:39:33.858Z,33.39
2022-08-10T08:42:00.932Z,32.37
2022-08-10T08:44:55.067Z,30.92
2022-08-10T08:48:03.179Z,30.52
2022-08-10T08:50:57.529Z,29.78
2022-08-10T08:54:02.780Z,29.41
2022-08-10T08:56:52.469Z,29.28
2022-08-10T08:59:22.508Z,30.29
2022-08-10T09:01:58.780Z,31.46
2022-08-10T09:04:48.515Z,32.04
2022-08-10T09:07:39.355Z,31.33
2022-08-10T09:10:44.970Z,32.26
2022-08-10T09:13:44.470Z,33.67
2022-08-10T09:16:26.238Z,35.50
2022-08-10T09:19:19.750Z,35.88
2022-08-10T09:22:26.372Z,36.64
2022-08-10T09:25:20.619Z,37.37
2022-08-10T09:28:03.516Z,36.76
2022-08-10T09:31:18.920Z,37.84
2022-08-10T09:36:27.001Z,38.82
2022-08-10T09:37:08.899Z,38.80
2022-08-10T09:40:56.112Z,39.32
2022-08-10T09:43:25.964Z,39.87
2022-08-10T09:46:11.964Z,39.82
2022-08-10T09:48:43.870Z,39.97
2022-08-10T09:51:46.251Z,39.41
2022-08-10T09:54:20.963Z,40.29
2022-08-10T09:57:24.418Z,40.74
2022-08-10T10:00:01.145Z,39.85
2022-08-10T10:02:39.323Z,39.38
2022-08-10T10:05:31.275Z,39.46
2022-08-10T10:08:09.747Z,39.59
2022-08-10T10:10:47.776Z,39.51
2022-08-10T10:13:50.047Z,39.83
2022-08-10T10:16:40.583Z,40.28
2022-08-10T10:19:31.105Z,40.44
2022-08-10T10:22:01.029Z,40.31
2022-08-10T10:24:47.905Z,39.79
2022-08-10T10:27:39.932Z,40.03
2022-08-10T10:30:14.467Z,40.87
2022-08-10T10:33:00.470Z,40.86
2022-08-10T10:35:36.944Z,41.16
2022-08-10T10:38:09.241Z,41.37
2022-08-10T10:40:49.164Z,41.46
2022-08-10T10:43:35.362Z,41.40
2022-08-10T10:46:23.524Z,41.54
2022-08-10T10:49:12.957Z,42.16
2022-08-10T10:52:02.049Z,42.58
2022-08-10T10:54:58.593Z,42.18
2022-08-10T10:57:58.668Z,42.23
2022-08-10T11:00:26.262Z,41.23
2022-08-10T11:02:58.967Z,41.44
2022-08-10T11:06:03.425Z,42.55
2022-08-10T11:08:52.087Z,41.90
2022-08-10T11:12:01.235Z,41.66
2022-08-10T11:14:50.731Z,41.84
2022-08-10T11:17:41.918Z,41.33
2022-08-10T11:20:38.865Z,41.98
2022-08-10T11:23:41.784Z,42.50
2022-08-10T11:26:27.661Z,41.71
2022-08-10T11:29:14.185Z,41.24
2022-08-10T11:31:50.747Z,41.57
2022-08-10T11:34:47.136Z,41.59
2022-08-10T11:37:14.996Z,41.16
2022-08-10T11:39:50.038Z,40.49
2022-08-10T11:42:36.198Z,39.54
2022-08-10T11:45:14.950Z,39.53
2022-08-10T11:47:48.613Z,39.66
2022-08-10T11:50:33.516Z,39.78
2022-08-10T11:53:23.812Z,39.29
2022-08-10T11:55:57.268Z,38.15
2022-08-10T11:58:58.373Z,38.11
2022-08-10T12:01:30.856Z,37.59
2022-08-10T12:04:07.595Z,37.69
2022-08-10T12:06:55.043Z,38.11
2022-08-10T12:10:05.725Z,37.67
2022-08-10T12:12:13.508Z,37.77
2022-08-10T12:15:13.054Z,37.76
2022-08-10T12:17:47.131Z,37.86
2022-08-10T12:20:36.270Z,37.08
2022-08-10T12:23:19.695Z,36.76
2022-08-10T12:26:12.728Z,37.13
2022-08-10T12:28:55.408Z,36.39
2022-08-10T12:31:40.936Z,36.53
2022-08-10T12:34:27.174Z,36.47
2022-08-10T12:37:07.807Z,35.84
2022-08-10T12:40:06.891Z,34.97
2022-08-10T12:43:02.448Z,33.64
2022-08-10T12:45:42.287Z,33.64
2022-08-10T12:48:18.892Z,32.15
2022-08-10T12:51:03.692Z,31.94
2022-08-10T12:53:55.718Z,31.74
2022-08-10T12:56:29.390Z,31.23
2022-08-10T12:59:01.493Z,31.66
2022-08-10T13:02:07.618Z,31.83
2022-08-10T13:04:29.888Z,32.43
2022-08-10T13:07:01.172Z,32.24
2022-08-10T13:09:29.169Z,31.89
2022-08-10T13:12:36.296Z,31.60
2022-08-10T13:14:58.622Z,30.60
2022-08-10T13:17:39.546Z,31.02
2022-08-10T13:20:20.582Z,31.67
2022-08-10T13:22:48.681Z,31.70
2022-08-10T13:25:24.225Z,31.02
2022-08-10T13:28:01.370Z,31.19
2022-08-10T13:30:50.697Z,29.85
2022-08-10T13:34:41.299Z,28.51
2022-08-10T13:36:07.966Z,28.96
2022-08-10T13:38:36.009Z,29.13
2022-08-10T13:41:04.262Z,29.15
2022-08-10T13:43:31.451Z,28.52
2022-08-10T13:46:07.901Z,26.44
2022-08-10T13:49:00.919Z,24.63
2022-08-10T13:51:56.575Z,24.11
2022-08-10T13:54:47.059Z,23.18
2022-08-10T14:00:38.701Z,23.88
2022-08-10T14:03:16.108Z,22.90
2022-08-10T14:05:49.552Z,23.64
2022-08-10T14:08:20.127Z,24.12
2022-08-10T14:11:09.719Z,23.81
2022-08-10T14:13:41.004Z,23.82
2022-08-10T14:16:10.651Z,23.70
2022-08-10T14:18:40.422Z,23.71
2022-08-10T14:21:09.031Z,23.55
2022-08-10T14:23:52.092Z,23.41
2022-08-10T14:26:35.696Z,23.22
2022-08-10T14:29:07.120Z,23.29
2022-08-10T14:31:39.360Z,24.39
2022-08-10T14:36:14.827Z,24.08
2022-08-10T14:37:40.326Z,25.18
2022-08-10T14:40:19.406Z,24.38
2022-08-10T14:43:02.734Z,25.30
2022-08-10T14:45:39.976Z,27.03
2022-08-10T14:48:29.835Z,28.48
2022-08-10T14:51:03.249Z,29.84
2022-08-10T14:53:36.879Z,31.64
2022-08-10T14:56:15.108Z,32.31
2022-08-10T14:59:05.869Z,32.88
2022-08-10T15:01:59.927Z,33.69
2022-08-10T15:04:37.631Z,33.01
2022-08-10T15:07:20.663Z,34.45
2022-08-10T15:10:00.898Z,34.78
2022-08-10T15:12:40.298Z,35.04
2022-08-10T15:15:16.547Z,35.43
2022-08-10T15:17:52.793Z,36.55
2022-08-10T15:20:23.919Z,36.61
2022-08-10T15:22:55.812Z,36.22
2022-08-10T15:25:26.448Z,35.84
2022-08-10T15:28:05.254Z,36.50
2022-08-10T15:30:40.463Z,36.42
2022-08-10T15:34:02.579Z,37.34
2022-08-10T15:37:30.749Z,37.61
2022-08-10T15:40:30.807Z,38.48
2022-08-10T15:43:25.006Z,39.23
2022-08-10T15:46:01.595Z,39.66
2022-08-10T15:48:58.106Z,38.89
2022-08-10T15:51:54.278Z,38.57
2022-08-10T15:54:33.425Z,38.43
2022-08-10T15:57:08.376Z,38.43
2022-08-10T15:59:41.688Z,38.17
2022-08-10T16:02:17.644Z,37.92
2022-08-10T16:04:49.469Z,38.30
2022-08-10T16:07:45.255Z,39.72
2022-08-10T16:10:25.411Z,39.51
2022-08-10T16:13:00.840Z,41.73
2022-08-10T16:15:30.725Z,40.71
2022-08-10T16:18:04.213Z,41.08
2022-08-10T16:20:53.035Z,42.76
2022-08-10T16:23:30.531Z,43.45
2022-08-10T16:26:14.687Z,44.24
2022-08-10T16:28:52.170Z,44.34
2022-08-10T16:31:22.438Z,42.28
2022-08-10T16:33:54.550Z,43.39
2022-08-10T16:36:29.685Z,43.58
2022-08-10T16:38:59.005Z,45.11
2022-08-10T16:42:02.873Z,46.14
2022-08-10T16:44:19.984Z,46.77
2022-08-10T16:46:48.329Z,45.38
2022-08-10T16:49:19.019Z,46.60
2022-08-10T16:51:49.607Z,47.75
2022-08-10T16:54:26.874Z,45.20
2022-08-10T16:57:04.013Z,46.95
2022-08-10T16:59:38.470Z,42.37
2022-08-10T17:02:11.741Z,41.13
2022-08-10T17:04:43.198Z,42.24
2022-08-10T17:07:20.194Z,41.32
2022-08-10T17:09:59.185Z,41.51
2022-08-10T17:12:31.554Z,41.23
2022-08-10T17:15:10.148Z,42.46
2022-08-10T17:17:46.672Z,40.44
2022-08-10T17:20:32.884Z,42.70
2022-08-10T17:23:11.504Z,42.87
2022-08-10T17:25:48.875Z,41.38
2022-08-10T17:28:35.074Z,46.28
2022-08-10T17:31:31.781Z,44.88
2022-08-10T17:34:17.271Z,47.72
2022-08-10T17:36:49.061Z,45.11
2022-08-10T17:39:21.256Z,44.98
2022-08-10T17:41:52.456Z,44.40
2022-08-10T17:44:20.943Z,48.02
2022-08-10T17:46:49.743Z,46.96
2022-08-10T17:49:20.646Z,45.82
2022-08-10T17:52:02.757Z,47.33
2022-08-10T17:54:35.585Z,46.60
2022-08-10T18:01:38.156Z,46.89
2022-08-10T18:03:54.153Z,45.57
2022-08-10T18:06:23.312Z,45.35
2022-08-10T18:08:58.912Z,45.66
2022-08-10T18:11:31.448Z,44.76
2022-08-10T18:14:08.024Z,44.53
2022-08-10T18:16:41.861Z,43.62
2022-08-10T18:19:16.314Z,44.43
2022-08-10T18:21:47.469Z,44.74
2022-08-10T18:24:22.268Z,44.35
2022-08-10T18:26:55.387Z,44.08
2022-08-10T18:29:28.838Z,44.17
2022-08-10T18:32:01.251Z,44.59
2022-08-10T18:34:31.374Z,44.96
2022-08-10T18:37:00.594Z,45.39
2022-08-10T18:39:32.576Z,46.69
2022-08-10T18:42:11.119Z,47.68
2022-08-10T18:44:47.728Z,49.00
2022-08-10T18:47:27.673Z,49.24
2022-08-10T18:50:12.628Z,50.08
2022-08-10T18:52:43.993Z,51.31
2022-08-10T18:55:23.051Z,50.91
2022-08-10T18:57:53.638Z,51.41
2022-08-10T19:00:23.264Z,52.25
2022-08-10T19:03:32.549Z,54.60
2022-08-10T19:06:57.242Z,52.44
2022-08-10T19:09:59.842Z,52.69
2022-08-10T19:13:15.385Z,52.54
2022-08-10T19:15:54.148Z,52.38
2022-08-10T19:18:32.719Z,53.48
2022-08-10T19:21:05.477Z,53.99
2022-08-10T19:23:46.953Z,54.51
2022-08-10T19:26:42.565Z,56.11
2022-08-10T19:29:09.149Z,55.65
2022-08-10T19:31:58.350Z,54.17
2022-08-10T19:34:46.431Z,54.06
2022-08-10T19:37:32.398Z,54.27
2022-08-10T19:40:16.902Z,54.27
2022-08-10T19:42:56.511Z,55.06
2022-08-10T19:45:56.096Z,54.06
2022-08-10T19:48:41.046Z,53.12
2022-08-10T19:51:34.225Z,52.72
2022-08-10T19:54:07.497Z,52.66
2022-08-10T19:56:59.763Z,52.78
2022-08-10T20:00:17.519Z,52.09
2022-08-10T20:02:28.874Z,52.13
2022-08-10T20:05:12.003Z,51.76
2022-08-10T20:08:03.968Z,52.17
2022-08-10T20:11:07.338Z,52.04
2022-08-10T20:13:46.797Z,52.36
2022-08-10T20:16:25.521Z,52.20
2022-08-10T20:19:04.864Z,52.66
2022-08-10T20:22:07.154Z,50.95
2022-08-10T20:24:43.261Z,50.17
2022-08-10T20:28:00.104Z,50.86
2022-08-10T20:30:15.631Z,50.38
2022-08-10T20:33:09.357Z,51.04
2022-08-10T20:35:45.716Z,51.09
2022-08-10T20:38:27.277Z,48.53
2022-08-10T20:41:08.998Z,46.89
2022-08-10T20:43:56.741Z,46.26
2022-08-10T20:46:43.707Z,44.73
2022-08-10T20:49:31.245Z,44.86
2022-08-10T20:52:03.218Z,45.02
2022-08-10T20:55:02.317Z,45.17
2022-08-10T20:57:54.772Z,45.52
2022-08-10T21:00:28.802Z,47.08
2022-08-10T21:03:06.853Z,46.98
2022-08-10T21:06:06.994Z,45.88
2022-08-10T21:08:42.983Z,45.38
2022-08-10T21:11:37.676Z,45.11
2022-08-10T21:14:19.020Z,44.26
2022-08-10T21:17:03.211Z,43.81
2022-08-10T21:20:03.637Z,44.16
2022-08-10T21:22:38.886Z,43.80
2022-08-10T21:25:42.232Z,44.03
2022-08-10T21:31:55.264Z,44.77
2022-08-10T21:34:41.043Z,44.64
2022-08-10T21:37:39.550Z,44.80
2022-08-10T21:40:35.763Z,45.12
2022-08-10T21:43:46.625Z,45.30
2022-08-10T21:46:58.870Z,45.77
2022-08-10T21:50:05.128Z,45.43
2022-08-10T21:53:10.457Z,46.46
2022-08-10T21:56:14.296Z,46.31
2022-08-10T21:59:12.442Z,46.92
2022-08-10T22:02:14.779Z,46.91
2022-08-10T22:05:00.999Z,46.89
2022-08-10T22:07:48.372Z,47.00
2022-08-10T22:10:37.828Z,47.10
2022-08-10T22:13:25.985Z,47.48
2022-08-10T22:16:16.671Z,46.89
2022-08-10T22:19:14.634Z,47.45
2022-08-10T22:22:27.639Z,47.97
2022-08-10T22:25:39.444Z,47.76
2022-08-10T22:28:25.094Z,47.70
2022-08-10T22:31:28.509Z,45.03
2022-08-10T22:31:32.514Z,47.99
2022-08-10T22:34:38.229Z,47.75
2022-08-10T22:37:51.002Z,47.93
2022-08-10T22:40:41.247Z,47.72
2022-08-10T22:43:35.815Z,48.48
2022-08-10T22:46:29.085Z,47.96
2022-08-10T22:49:02.248Z,48.35
2022-08-10T22:51:54.017Z,48.24
2022-08-10T22:54:47.241Z,48.57
2022-08-10T22:57:34.209Z,48.97
2022-08-10T23:00:17.834Z,49.31
2022-08-10T23:02:57.379Z,49.39
2022-08-10T23:05:48.565Z,48.58
2022-08-10T23:08:47.160Z,49.04
2022-08-10T23:11:39.392Z,48.94
2022-08-10T23:14:11.132Z,49.57
2022-08-10T23:17:04.734Z,49.76
2022-08-10T23:19:44.516Z,49.78
2022-08-10T23:22:16.347Z,50.12
2022-08-10T23:24:48.922Z,50.21
2022-08-10T23:27:38.980Z,50.07
2022-08-10T23:30:16.948Z,50.59
2022-08-10T23:32:49.089Z,50.69
2022-08-10T23:36:29.597Z,51.14
2022-08-10T23:38:15.436Z,51.39
2022-08-10T23:40:48.651Z,52.07
2022-08-10T23:43:32.062Z,50.53
2022-08-10T23:46:10.188Z,51.38
2022-08-10T23:48:39.134Z,51.45
2022-08-10T23:51:17.509Z,51.35
2022-08-10T23:53:48.076Z,51.80
2022-08-10T23:56:23.919Z,51.64
2022-08-10T23:58:54.792Z,52.17
